sensor_id;sensor_type;location;lat;lon;timestamp;P1;durP1;ratioP1;P2;durP2;ratioP2
22186;SDS011;11259;52.146;12.844;2023-07-29T00:00:48;1.02;;;0.95;;
22186;SDS011;11259;52.146;12.844;2023-07-29T00:03:14;1.25;;;1.15;;
22186;SDS011;11259;52.146;12.844;2023-07-29T00:05:39;0.95;;;0.85;;
22186;SDS011;11259;52.146;12.844;2023-07-29T00:08:06;1.88;;;1.35;;
22186;SDS011;11259;52.146;12.844;2023-07-29T00:10:32;1.23;;;1.13;;
22186;SDS011;11259;52.146;12.844;2023-07-29T00:12:58;1.02;;;0.90;;
22186;SDS011;11259;52.146;12.844;2023-07-29T00:15:23;0.80;;;0.80;;
22186;SDS011;11259;52.146;12.844;2023-07-29T00:17:49;1.50;;;1.33;;
22186;SDS011;11259;52.146;12.844;2023-07-29T00:20:14;1.35;;;1.25;;
22186;SDS011;11259;52.146;12.844;2023-07-29T00:22:39;1.45;;;1.00;;
22186;SDS011;11259;52.146;12.844;2023-07-29T00:25:06;1.10;;;1.00;;
22186;SDS011;11259;52.146;12.844;2023-07-29T00:27:32;1.23;;;1.13;;
22186;SDS011;11259;52.146;12.844;2023-07-29T00:29:57;1.10;;;1.00;;
22186;SDS011;11259;52.146;12.844;2023-07-29T00:32:23;1.20;;;1.10;;
22186;SDS011;11259;52.146;12.844;2023-07-29T00:34:48;1.30;;;1.20;;
22186;SDS011;11259;52.146;12.844;2023-07-29T00:37:13;1.45;;;1.35;;
22186;SDS011;11259;52.146;12.844;2023-07-29T00:39:39;1.65;;;1.27;;
22186;SDS011;11259;52.146;12.844;2023-07-29T00:42:06;2.25;;;1.35;;
22186;SDS011;11259;52.146;12.844;2023-07-29T00:44:31;1.73;;;1.40;;
22186;SDS011;11259;52.146;12.844;2023-07-29T00:46:57;1.25;;;1.10;;
22186;SDS011;11259;52.146;12.844;2023-07-29T00:49:22;3.08;;;1.80;;
22186;SDS011;11259;52.146;12.844;2023-07-29T00:51:47;2.03;;;1.20;;
22186;SDS011;11259;52.146;12.844;2023-07-29T00:54:13;1.30;;;1.20;;
22186;SDS011;11259;52.146;12.844;2023-07-29T00:56:38;1.80;;;1.60;;
22186;SDS011;11259;52.146;12.844;2023-07-29T00:59:05;1.48;;;1.10;;
22186;SDS011;11259;52.146;12.844;2023-07-29T01:01:31;1.40;;;1.30;;
22186;SDS011;11259;52.146;12.844;2023-07-29T01:03:56;1.48;;;1.10;;
22186;SDS011;11259;52.146;12.844;2023-07-29T01:06:23;2.13;;;1.15;;
22186;SDS011;11259;52.146;12.844;2023-07-29T01:08:55;1.13;;;1.02;;
22186;SDS011;11259;52.146;12.844;2023-07-29T01:11:28;1.38;;;1.23;;
22186;SDS011;11259;52.146;12.844;2023-07-29T01:14:00;1.75;;;1.42;;
22186;SDS011;11259;52.146;12.844;2023-07-29T01:16:31;1.23;;;1.13;;
22186;SDS011;11259;52.146;12.844;2023-07-29T01:18:59;1.42;;;1.30;;
22186;SDS011;11259;52.146;12.844;2023-07-29T01:21:30;1.80;;;1.30;;
22186;SDS011;11259;52.146;12.844;2023-07-29T01:23:59;1.23;;;1.13;;
22186;SDS011;11259;52.146;12.844;2023-07-29T01:26:24;2.50;;;1.73;;
22186;SDS011;11259;52.146;12.844;2023-07-29T01:28:49;1.50;;;0.88;;
22186;SDS011;11259;52.146;12.844;2023-07-29T01:31:16;1.27;;;1.10;;
22186;SDS011;11259;52.146;12.844;2023-07-29T01:33:48;1.40;;;1.30;;
22186;SDS011;11259;52.146;12.844;2023-07-29T01:36:18;0.95;;;0.93;;
22186;SDS011;11259;52.146;12.844;2023-07-29T01:38:46;1.20;;;1.10;;
22186;SDS011;11259;52.146;12.844;2023-07-29T01:41:14;1.50;;;1.30;;
22186;SDS011;11259;52.146;12.844;2023-07-29T01:43:39;1.98;;;1.10;;
22186;SDS011;11259;52.146;12.844;2023-07-29T01:46:05;1.27;;;1.17;;
22186;SDS011;11259;52.146;12.844;2023-07-29T01:48:30;1.25;;;1.15;;
22186;SDS011;11259;52.146;12.844;2023-07-29T01:50:55;2.38;;;1.45;;
22186;SDS011;11259;52.146;12.844;2023-07-29T01:53:21;1.60;;;1.27;;
22186;SDS011;11259;52.146;12.844;2023-07-29T01:55:46;1.50;;;1.35;;
22186;SDS011;11259;52.146;12.844;2023-07-29T01:58:13;3.10;;;1.58;;
22186;SDS011;11259;52.146;12.844;2023-07-29T02:00:38;1.35;;;1.25;;
22186;SDS011;11259;52.146;12.844;2023-07-29T02:03:03;2.17;;;1.40;;
22186;SDS011;11259;52.146;12.844;2023-07-29T02:05:29;2.35;;;1.17;;
22186;SDS011;11259;52.146;12.844;2023-07-29T02:07:54;1.90;;;1.35;;
22186;SDS011;11259;52.146;12.844;2023-07-29T02:10:19;1.30;;;1.20;;
22186;SDS011;11259;52.146;12.844;2023-07-29T02:12:45;1.50;;;1.27;;
22186;SDS011;11259;52.146;12.844;2023-07-29T02:15:11;1.48;;;1.38;;
22186;SDS011;11259;52.146;12.844;2023-07-29T02:17:37;1.50;;;1.40;;
22186;SDS011;11259;52.146;12.844;2023-07-29T02:20:02;1.67;;;1.55;;
22186;SDS011;11259;52.146;12.844;2023-07-29T02:22:28;1.90;;;1.42;;
22186;SDS011;11259;52.146;12.844;2023-07-29T02:24:53;1.77;;;1.42;;
22186;SDS011;11259;52.146;12.844;2023-07-29T02:27:18;1.20;;;1.10;;
22186;SDS011;11259;52.146;12.844;2023-07-29T02:29:44;1.92;;;1.45;;
22186;SDS011;11259;52.146;12.844;2023-07-29T02:32:10;2.00;;;1.80;;
22186;SDS011;11259;52.146;12.844;2023-07-29T02:34:36;1.48;;;1.38;;
22186;SDS011;11259;52.146;12.844;2023-07-29T02:37:01;2.20;;;1.30;;
22186;SDS011;11259;52.146;12.844;2023-07-29T02:39:26;1.35;;;1.23;;
22186;SDS011;11259;52.146;12.844;2023-07-29T02:41:52;1.63;;;1.52;;
22186;SDS011;11259;52.146;12.844;2023-07-29T02:44:17;1.83;;;1.70;;
22186;SDS011;11259;52.146;12.844;2023-07-29T02:46:42;3.22;;;1.63;;
22186;SDS011;11259;52.146;12.844;2023-07-29T02:49:09;1.60;;;1.50;;
22186;SDS011;11259;52.146;12.844;2023-07-29T02:51:34;1.05;;;1.00;;
22186;SDS011;11259;52.146;12.844;2023-07-29T02:54:00;1.35;;;1.25;;
22186;SDS011;11259;52.146;12.844;2023-07-29T02:56:25;2.13;;;1.80;;
22186;SDS011;11259;52.146;12.844;2023-07-29T02:58:50;1.52;;;1.42;;
22186;SDS011;11259;52.146;12.844;2023-07-29T03:01:16;2.25;;;1.75;;
22186;SDS011;11259;52.146;12.844;2023-07-29T03:03:41;2.72;;;1.73;;
22186;SDS011;11259;52.146;12.844;2023-07-29T03:06:08;1.65;;;1.50;;
22186;SDS011;11259;52.146;12.844;2023-07-29T03:08:35;1.60;;;1.40;;
22186;SDS011;11259;52.146;12.844;2023-07-29T03:11:04;1.52;;;1.42;;
22186;SDS011;11259;52.146;12.844;2023-07-29T03:13:30;2.17;;;1.52;;
22186;SDS011;11259;52.146;12.844;2023-07-29T03:16:03;1.60;;;1.50;;
22186;SDS011;11259;52.146;12.844;2023-07-29T03:18:29;2.00;;;1.58;;
22186;SDS011;11259;52.146;12.844;2023-07-29T03:20:55;1.90;;;1.40;;
22186;SDS011;11259;52.146;12.844;2023-07-29T03:23:22;1.60;;;1.33;;
22186;SDS011;11259;52.146;12.844;2023-07-29T03:25:48;4.63;;;1.90;;
22186;SDS011;11259;52.146;12.844;2023-07-29T03:28:13;2.15;;;1.52;;
22186;SDS011;11259;52.146;12.844;2023-07-29T03:30:38;2.05;;;1.50;;
22186;SDS011;11259;52.146;12.844;2023-07-29T03:33:04;1.30;;;1.20;;
22186;SDS011;11259;52.146;12.844;2023-07-29T03:35:29;1.60;;;1.40;;
22186;SDS011;11259;52.146;12.844;2023-07-29T03:37:54;1.80;;;1.50;;
22186;SDS011;11259;52.146;12.844;2023-07-29T03:40:21;1.25;;;1.15;;
22186;SDS011;11259;52.146;12.844;2023-07-29T03:42:46;1.50;;;1.35;;
22186;SDS011;11259;52.146;12.844;2023-07-29T03:45:12;1.50;;;1.40;;
22186;SDS011;11259;52.146;12.844;2023-07-29T03:47:37;1.33;;;1.15;;
22186;SDS011;11259;52.146;12.844;2023-07-29T03:50:03;1.38;;;1.27;;
22186;SDS011;11259;52.146;12.844;2023-07-29T03:52:28;1.25;;;1.08;;
22186;SDS011;11259;52.146;12.844;2023-07-29T03:54:54;1.20;;;1.05;;
22186;SDS011;11259;52.146;12.844;2023-07-29T03:57:20;1.63;;;1.38;;
22186;SDS011;11259;52.146;12.844;2023-07-29T03:59:45;2.30;;;1.42;;
22186;SDS011;11259;52.146;12.844;2023-07-29T04:02:11;1.85;;;1.58;;
22186;SDS011;11259;52.146;12.844;2023-07-29T04:04:36;1.05;;;0.98;;
22186;SDS011;11259;52.146;12.844;2023-07-29T04:07:01;1.40;;;1.30;;
22186;SDS011;11259;52.146;12.844;2023-07-29T04:09:27;2.55;;;1.63;;
22186;SDS011;11259;52.146;12.844;2023-07-29T04:11:52;1.33;;;1.23;;
22186;SDS011;11259;52.146;12.844;2023-07-29T04:14:19;1.30;;;1.20;;
22186;SDS011;11259;52.146;12.844;2023-07-29T04:16:44;1.65;;;1.45;;
22186;SDS011;11259;52.146;12.844;2023-07-29T04:19:09;2.47;;;1.67;;
22186;SDS011;11259;52.146;12.844;2023-07-29T04:21:35;2.72;;;1.67;;
22186;SDS011;11259;52.146;12.844;2023-07-29T04:24:00;1.52;;;1.10;;
22186;SDS011;11259;52.146;12.844;2023-07-29T04:26:25;1.80;;;1.45;;
22186;SDS011;11259;52.146;12.844;2023-07-29T04:28:51;1.48;;;1.30;;
22186;SDS011;11259;52.146;12.844;2023-07-29T04:31:17;1.60;;;1.50;;
22186;SDS011;11259;52.146;12.844;2023-07-29T04:33:43;1.38;;;1.27;;
22186;SDS011;11259;52.146;12.844;2023-07-29T04:36:08;2.05;;;1.45;;
22186;SDS011;11259;52.146;12.844;2023-07-29T04:38:33;2.08;;;1.60;;
22186;SDS011;11259;52.146;12.844;2023-07-29T04:40:59;1.60;;;1.40;;
22186;SDS011;11259;52.146;12.844;2023-07-29T04:43:26;2.15;;;1.38;;
22186;SDS011;11259;52.146;12.844;2023-07-29T04:45:52;1.65;;;1.52;;
22186;SDS011;11259;52.146;12.844;2023-07-29T04:48:18;1.33;;;1.23;;
22186;SDS011;11259;52.146;12.844;2023-07-29T04:50:43;1.75;;;1.35;;
22186;SDS011;11259;52.146;12.844;2023-07-29T04:53:09;1.83;;;1.45;;
22186;SDS011;11259;52.146;12.844;2023-07-29T04:55:34;1.65;;;1.30;;
22186;SDS011;11259;52.146;12.844;2023-07-29T04:57:59;1.30;;;1.20;;
22186;SDS011;11259;52.146;12.844;2023-07-29T05:00:25;1.95;;;1.45;;
22186;SDS011;11259;52.146;12.844;2023-07-29T05:02:50;1.52;;;1.08;;
22186;SDS011;11259;52.146;12.844;2023-07-29T05:05:17;1.90;;;1.48;;
22186;SDS011;11259;52.146;12.844;2023-07-29T05:07:42;1.38;;;1.20;;
22186;SDS011;11259;52.146;12.844;2023-07-29T05:10:08;0.80;;;0.80;;
22186;SDS011;11259;52.146;12.844;2023-07-29T05:12:33;0.90;;;0.85;;
22186;SDS011;11259;52.146;12.844;2023-07-29T05:14:59;0.80;;;0.70;;
22186;SDS011;11259;52.146;12.844;2023-07-29T05:17:24;0.90;;;0.90;;
22186;SDS011;11259;52.146;12.844;2023-07-29T05:19:49;0.68;;;0.68;;
22186;SDS011;11259;52.146;12.844;2023-07-29T05:22:16;0.60;;;0.60;;
22186;SDS011;11259;52.146;12.844;2023-07-29T05:24:41;0.60;;;0.60;;
22186;SDS011;11259;52.146;12.844;2023-07-29T05:27:07;0.73;;;0.73;;
22186;SDS011;11259;52.146;12.844;2023-07-29T05:29:32;0.50;;;0.50;;
22186;SDS011;11259;52.146;12.844;2023-07-29T05:31:58;0.43;;;0.40;;
22186;SDS011;11259;52.146;12.844;2023-07-29T05:34:23;0.50;;;0.50;;
22186;SDS011;11259;52.146;12.844;2023-07-29T05:36:48;0.63;;;0.60;;
22186;SDS011;11259;52.146;12.844;2023-07-29T05:39:15;0.63;;;0.63;;
22186;SDS011;11259;52.146;12.844;2023-07-29T05:41:40;0.52;;;0.50;;
22186;SDS011;11259;52.146;12.844;2023-07-29T05:44:06;0.68;;;0.68;;
22186;SDS011;11259;52.146;12.844;2023-07-29T05:46:31;0.57;;;0.57;;
22186;SDS011;11259;52.146;12.844;2023-07-29T05:48:56;0.55;;;0.55;;
22186;SDS011;11259;52.146;12.844;2023-07-29T05:51:22;0.40;;;0.40;;
22186;SDS011;11259;52.146;12.844;2023-07-29T05:53:47;0.50;;;0.50;;
22186;SDS011;11259;52.146;12.844;2023-07-29T05:56:14;0.47;;;0.47;;
22186;SDS011;11259;52.146;12.844;2023-07-29T05:58:39;0.50;;;0.50;;
22186;SDS011;11259;52.146;12.844;2023-07-29T06:01:04;0.70;;;0.47;;
22186;SDS011;11259;52.146;12.844;2023-07-29T06:03:29;0.65;;;0.65;;
22186;SDS011;11259;52.146;12.844;2023-07-29T06:05:55;0.50;;;0.50;;
22186;SDS011;11259;52.146;12.844;2023-07-29T06:08:20;0.40;;;0.40;;
22186;SDS011;11259;52.146;12.844;2023-07-29T06:10:46;0.40;;;0.40;;
22186;SDS011;11259;52.146;12.844;2023-07-29T06:13:12;0.35;;;0.30;;
22186;SDS011;11259;52.146;12.844;2023-07-29T06:15:38;0.82;;;0.70;;
22186;SDS011;11259;52.146;12.844;2023-07-29T06:18:03;1.08;;;0.80;;
22186;SDS011;11259;52.146;12.844;2023-07-29T06:20:28;0.50;;;0.50;;
22186;SDS011;11259;52.146;12.844;2023-07-29T06:22:53;0.38;;;0.38;;
22186;SDS011;11259;52.146;12.844;2023-07-29T06:25:19;0.40;;;0.40;;
22186;SDS011;11259;52.146;12.844;2023-07-29T06:27:44;0.50;;;0.50;;
22186;SDS011;11259;52.146;12.844;2023-07-29T06:30:11;0.50;;;0.40;;
22186;SDS011;11259;52.146;12.844;2023-07-29T06:32:36;0.70;;;0.63;;
22186;SDS011;11259;52.146;12.844;2023-07-29T06:35:02;0.50;;;0.50;;
22186;SDS011;11259;52.146;12.844;2023-07-29T06:37:27;0.50;;;0.50;;
22186;SDS011;11259;52.146;12.844;2023-07-29T06:39:52;0.88;;;0.60;;
22186;SDS011;11259;52.146;12.844;2023-07-29T06:42:18;0.40;;;0.40;;
22186;SDS011;11259;52.146;12.844;2023-07-29T06:44:43;0.60;;;0.52;;
22186;SDS011;11259;52.146;12.844;2023-07-29T06:47:10;0.60;;;0.60;;
22186;SDS011;11259;52.146;12.844;2023-07-29T06:49:35;0.52;;;0.52;;
22186;SDS011;11259;52.146;12.844;2023-07-29T06:52:00;1.08;;;0.63;;
22186;SDS011;11259;52.146;12.844;2023-07-29T06:54:26;0.60;;;0.60;;
22186;SDS011;11259;52.146;12.844;2023-07-29T06:56:51;0.82;;;0.80;;
22186;SDS011;11259;52.146;12.844;2023-07-29T06:59:16;0.93;;;0.82;;
22186;SDS011;11259;52.146;12.844;2023-07-29T07:01:42;0.68;;;0.68;;
22186;SDS011;11259;52.146;12.844;2023-07-29T07:04:08;1.00;;;0.57;;
22186;SDS011;11259;52.146;12.844;2023-07-29T07:06:34;0.60;;;0.60;;
22186;SDS011;11259;52.146;12.844;2023-07-29T07:08:59;0.50;;;0.50;;
22186;SDS011;11259;52.146;12.844;2023-07-29T07:11:24;0.77;;;0.77;;
22186;SDS011;11259;52.146;12.844;2023-07-29T07:13:49;0.85;;;0.77;;
22186;SDS011;11259;52.146;12.844;2023-07-29T07:16:15;0.50;;;0.50;;
22186;SDS011;11259;52.146;12.844;2023-07-29T07:18:40;0.55;;;0.55;;
22186;SDS011;11259;52.146;12.844;2023-07-29T07:21:07;0.88;;;0.80;;
22186;SDS011;11259;52.146;12.844;2023-07-29T07:23:32;0.80;;;0.80;;
22186;SDS011;11259;52.146;12.844;2023-07-29T07:25:57;0.68;;;0.68;;
22186;SDS011;11259;52.146;12.844;2023-07-29T07:28:23;0.70;;;0.63;;
22186;SDS011;11259;52.146;12.844;2023-07-29T07:30:48;0.60;;;0.60;;
22186;SDS011;11259;52.146;12.844;2023-07-29T07:33:13;0.70;;;0.70;;
22186;SDS011;11259;52.146;12.844;2023-07-29T07:35:39;0.63;;;0.63;;
22186;SDS011;11259;52.146;12.844;2023-07-29T07:38:05;0.70;;;0.60;;
22186;SDS011;11259;52.146;12.844;2023-07-29T07:40:31;0.60;;;0.60;;
22186;SDS011;11259;52.146;12.844;2023-07-29T07:42:56;0.65;;;0.65;;
22186;SDS011;11259;52.146;12.844;2023-07-29T07:45:21;0.60;;;0.60;;
22186;SDS011;11259;52.146;12.844;2023-07-29T07:47:47;0.47;;;0.47;;
22186;SDS011;11259;52.146;12.844;2023-07-29T07:50:12;0.65;;;0.60;;
22186;SDS011;11259;52.146;12.844;2023-07-29T07:52:37;0.60;;;0.60;;
22186;SDS011;11259;52.146;12.844;2023-07-29T07:55:04;0.95;;;0.85;;
22186;SDS011;11259;52.146;12.844;2023-07-29T07:57:30;0.50;;;0.50;;
22186;SDS011;11259;52.146;12.844;2023-07-29T07:59:55;0.60;;;0.60;;
22186;SDS011;11259;52.146;12.844;2023-07-29T08:02:20;1.13;;;0.57;;
22186;SDS011;11259;52.146;12.844;2023-07-29T08:04:46;0.50;;;0.50;;
22186;SDS011;11259;52.146;12.844;2023-07-29T08:07:11;0.55;;;0.55;;
22186;SDS011;11259;52.146;12.844;2023-07-29T08:09:36;0.68;;;0.60;;
22186;SDS011;11259;52.146;12.844;2023-07-29T08:12:03;0.80;;;0.80;;
22186;SDS011;11259;52.146;12.844;2023-07-29T08:14:29;0.70;;;0.70;;
22186;SDS011;11259;52.146;12.844;2023-07-29T08:16:54;0.50;;;0.50;;
22186;SDS011;11259;52.146;12.844;2023-07-29T08:19:20;0.88;;;0.63;;
22186;SDS011;11259;52.146;12.844;2023-07-29T08:21:45;0.80;;;0.80;;
22186;SDS011;11259;52.146;12.844;2023-07-29T08:24:10;0.77;;;0.77;;
22186;SDS011;11259;52.146;12.844;2023-07-29T08:26:36;0.80;;;0.80;;
22186;SDS011;11259;52.146;12.844;2023-07-29T08:29:02;1.15;;;0.93;;
22186;SDS011;11259;52.146;12.844;2023-07-29T08:31:28;0.65;;;0.65;;
22186;SDS011;11259;52.146;12.844;2023-07-29T08:33:53;1.50;;;0.90;;
22186;SDS011;11259;52.146;12.844;2023-07-29T08:36:18;0.77;;;0.70;;
22186;SDS011;11259;52.146;12.844;2023-07-29T08:38:43;0.70;;;0.70;;
22186;SDS011;11259;52.146;12.844;2023-07-29T08:41:10;1.13;;;1.02;;
22186;SDS011;11259;52.146;12.844;2023-07-29T08:43:41;0.60;;;0.60;;
22186;SDS011;11259;52.146;12.844;2023-07-29T08:46:10;0.82;;;0.77;;
22186;SDS011;11259;52.146;12.844;2023-07-29T08:48:36;0.60;;;0.60;;
22186;SDS011;11259;52.146;12.844;2023-07-29T08:51:05;0.80;;;0.80;;
22186;SDS011;11259;52.146;12.844;2023-07-29T08:53:33;0.65;;;0.50;;
22186;SDS011;11259;52.146;12.844;2023-07-29T08:55:59;1.33;;;1.02;;
22186;SDS011;11259;52.146;12.844;2023-07-29T08:58:25;0.77;;;0.65;;
22186;SDS011;11259;52.146;12.844;2023-07-29T09:00:50;0.60;;;0.60;;
22186;SDS011;11259;52.146;12.844;2023-07-29T09:03:16;0.70;;;0.70;;
22186;SDS011;11259;52.146;12.844;2023-07-29T09:05:42;0.60;;;0.60;;
22186;SDS011;11259;52.146;12.844;2023-07-29T09:08:07;0.65;;;0.65;;
22186;SDS011;11259;52.146;12.844;2023-07-29T09:10:35;0.82;;;0.82;;
22186;SDS011;11259;52.146;12.844;2023-07-29T09:13:00;0.45;;;0.45;;
22186;SDS011;11259;52.146;12.844;2023-07-29T09:15:27;0.88;;;0.85;;
22186;SDS011;11259;52.146;12.844;2023-07-29T09:17:52;0.80;;;0.80;;
22186;SDS011;11259;52.146;12.844;2023-07-29T09:20:24;0.70;;;0.70;;
22186;SDS011;11259;52.146;12.844;2023-07-29T09:22:49;0.82;;;0.80;;
22186;SDS011;11259;52.146;12.844;2023-07-29T09:25:15;0.70;;;0.70;;
22186;SDS011;11259;52.146;12.844;2023-07-29T09:27:40;0.80;;;0.80;;
22186;SDS011;11259;52.146;12.844;2023-07-29T09:30:06;0.70;;;0.70;;
22186;SDS011;11259;52.146;12.844;2023-07-29T09:32:32;0.63;;;0.60;;
22186;SDS011;11259;52.146;12.844;2023-07-29T09:34:57;0.60;;;0.60;;
22186;SDS011;11259;52.146;12.844;2023-07-29T09:37:24;0.70;;;0.68;;
22186;SDS011;11259;52.146;12.844;2023-07-29T09:39:49;0.60;;;0.60;;
22186;SDS011;11259;52.146;12.844;2023-07-29T09:42:18;0.70;;;0.70;;
22186;SDS011;11259;52.146;12.844;2023-07-29T09:44:44;0.60;;;0.57;;
22186;SDS011;11259;52.146;12.844;2023-07-29T09:47:09;0.65;;;0.65;;
22186;SDS011;11259;52.146;12.844;2023-07-29T09:49:35;0.57;;;0.50;;
22186;SDS011;11259;52.146;12.844;2023-07-29T09:52:00;0.70;;;0.70;;
22186;SDS011;11259;52.146;12.844;2023-07-29T09:54:27;0.40;;;0.40;;
22186;SDS011;11259;52.146;12.844;2023-07-29T09:56:52;0.65;;;0.65;;
22186;SDS011;11259;52.146;12.844;2023-07-29T09:59:18;0.90;;;0.85;;
22186;SDS011;11259;52.146;12.844;2023-07-29T10:01:44;0.70;;;0.70;;
22186;SDS011;11259;52.146;12.844;2023-07-29T10:04:09;0.80;;;0.80;;
22186;SDS011;11259;52.146;12.844;2023-07-29T10:06:35;0.52;;;0.52;;
22186;SDS011;11259;52.146;12.844;2023-07-29T10:09:01;4.30;;;0.90;;
22186;SDS011;11259;52.146;12.844;2023-07-29T10:11:28;0.65;;;0.65;;
22186;SDS011;11259;52.146;12.844;2023-07-29T10:13:53;0.60;;;0.60;;
22186;SDS011;11259;52.146;12.844;2023-07-29T10:16:19;0.50;;;0.50;;
22186;SDS011;11259;52.146;12.844;2023-07-29T10:18:44;0.70;;;0.70;;
22186;SDS011;11259;52.146;12.844;2023-07-29T10:21:09;0.93;;;0.82;;
22186;SDS011;11259;52.146;12.844;2023-07-29T10:23:37;0.60;;;0.60;;
22186;SDS011;11259;52.146;12.844;2023-07-29T10:26:04;0.75;;;0.75;;
22186;SDS011;11259;52.146;12.844;2023-07-29T10:28:32;0.85;;;0.60;;
22186;SDS011;11259;52.146;12.844;2023-07-29T10:30:58;0.60;;;0.60;;
22186;SDS011;11259;52.146;12.844;2023-07-29T10:33:23;0.60;;;0.60;;
22186;SDS011;11259;52.146;12.844;2023-07-29T10:35:49;0.60;;;0.60;;
22186;SDS011;11259;52.146;12.844;2023-07-29T10:38:14;0.55;;;0.55;;
22186;SDS011;11259;52.146;12.844;2023-07-29T10:40:43;0.60;;;0.60;;
22186;SDS011;11259;52.146;12.844;2023-07-29T10:43:10;0.65;;;0.65;;
22186;SDS011;11259;52.146;12.844;2023-07-29T10:45:38;0.80;;;0.80;;
22186;SDS011;11259;52.146;12.844;2023-07-29T10:48:09;1.00;;;0.80;;
22186;SDS011;11259;52.146;12.844;2023-07-29T10:50:35;0.68;;;0.68;;
22186;SDS011;11259;52.146;12.844;2023-07-29T10:53:00;0.85;;;0.80;;
22186;SDS011;11259;52.146;12.844;2023-07-29T10:55:27;0.60;;;0.60;;
22186;SDS011;11259;52.146;12.844;2023-07-29T10:58:04;0.82;;;0.80;;
22186;SDS011;11259;52.146;12.844;2023-07-29T11:00:48;0.73;;;0.73;;
22186;SDS011;11259;52.146;12.844;2023-07-29T11:03:14;0.80;;;0.80;;
22186;SDS011;11259;52.146;12.844;2023-07-29T11:05:43;0.65;;;0.65;;
22186;SDS011;11259;52.146;12.844;2023-07-29T11:08:23;0.70;;;0.70;;
22186;SDS011;11259;52.146;12.844;2023-07-29T11:10:57;0.63;;;0.60;;
22186;SDS011;11259;52.146;12.844;2023-07-29T11:13:25;0.52;;;0.52;;
22186;SDS011;11259;52.146;12.844;2023-07-29T11:15:52;0.60;;;0.50;;
22186;SDS011;11259;52.146;12.844;2023-07-29T11:18:18;0.50;;;0.50;;
22186;SDS011;11259;52.146;12.844;2023-07-29T11:20:45;0.50;;;0.50;;
22186;SDS011;11259;52.146;12.844;2023-07-29T11:23:11;0.40;;;0.40;;
22186;SDS011;11259;52.146;12.844;2023-07-29T11:25:36;0.30;;;0.30;;
22186;SDS011;11259;52.146;12.844;2023-07-29T11:28:01;0.50;;;0.43;;
22186;SDS011;11259;52.146;12.844;2023-07-29T11:30:27;0.30;;;0.30;;
22186;SDS011;11259;52.146;12.844;2023-07-29T11:32:54;0.20;;;0.20;;
22186;SDS011;11259;52.146;12.844;2023-07-29T11:35:19;0.20;;;0.20;;
22186;SDS011;11259;52.146;12.844;2023-07-29T11:37:46;0.82;;;0.30;;
22186;SDS011;11259;52.146;12.844;2023-07-29T11:40:13;0.20;;;0.20;;
22186;SDS011;11259;52.146;12.844;2023-07-29T11:42:39;0.30;;;0.30;;
22186;SDS011;11259;52.146;12.844;2023-07-29T11:45:05;0.10;;;0.10;;
22186;SDS011;11259;52.146;12.844;2023-07-29T11:47:31;0.40;;;0.40;;
22186;SDS011;11259;52.146;12.844;2023-07-29T11:49:59;0.30;;;0.30;;
22186;SDS011;11259;52.146;12.844;2023-07-29T11:52:24;0.30;;;0.30;;
22186;SDS011;11259;52.146;12.844;2023-07-29T11:54:49;0.30;;;0.30;;
22186;SDS011;11259;52.146;12.844;2023-07-29T11:57:15;1.55;;;0.50;;
22186;SDS011;11259;52.146;12.844;2023-07-29T11:59:41;0.15;;;0.15;;
22186;SDS011;11259;52.146;12.844;2023-07-29T12:02:08;0.40;;;0.40;;
22186;SDS011;11259;52.146;12.844;2023-07-29T12:04:35;0.40;;;0.40;;
22186;SDS011;11259;52.146;12.844;2023-07-29T12:07:02;0.40;;;0.30;;
22186;SDS011;11259;52.146;12.844;2023-07-29T12:09:28;0.30;;;0.30;;
22186;SDS011;11259;52.146;12.844;2023-07-29T12:11:53;0.20;;;0.20;;
22186;SDS011;11259;52.146;12.844;2023-07-29T12:14:19;0.30;;;0.30;;
22186;SDS011;11259;52.146;12.844;2023-07-29T12:16:44;0.20;;;0.20;;
22186;SDS011;11259;52.146;12.844;2023-07-29T12:19:12;0.30;;;0.30;;
22186;SDS011;11259;52.146;12.844;2023-07-29T12:21:38;0.30;;;0.30;;
22186;SDS011;11259;52.146;12.844;2023-07-29T12:24:05;0.30;;;0.30;;
22186;SDS011;11259;52.146;12.844;2023-07-29T12:26:30;0.25;;;0.25;;
22186;SDS011;11259;52.146;12.844;2023-07-29T12:28:56;0.95;;;0.20;;
22186;SDS011;11259;52.146;12.844;2023-07-29T12:31:21;0.30;;;0.30;;
22186;SDS011;11259;52.146;12.844;2023-07-29T12:33:46;0.10;;;0.10;;
22186;SDS011;11259;52.146;12.844;2023-07-29T12:36:12;0.30;;;0.30;;
22186;SDS011;11259;52.146;12.844;2023-07-29T12:38:37;0.30;;;0.30;;
22186;SDS011;11259;52.146;12.844;2023-07-29T12:41:03;0.30;;;0.30;;
22186;SDS011;11259;52.146;12.844;2023-07-29T12:43:29;0.20;;;0.20;;
22186;SDS011;11259;52.146;12.844;2023-07-29T12:45:54;0.30;;;0.30;;
22186;SDS011;11259;52.146;12.844;2023-07-29T12:48:19;0.60;;;0.40;;
22186;SDS011;11259;52.146;12.844;2023-07-29T12:50:45;0.40;;;0.40;;
22186;SDS011;11259;52.146;12.844;2023-07-29T12:53:10;0.35;;;0.35;;
22186;SDS011;11259;52.146;12.844;2023-07-29T12:55:35;0.30;;;0.30;;
22186;SDS011;11259;52.146;12.844;2023-07-29T12:58:02;0.50;;;0.50;;
22186;SDS011;11259;52.146;12.844;2023-07-29T13:00:27;0.30;;;0.30;;
22186;SDS011;11259;52.146;12.844;2023-07-29T13:02:53;1.17;;;0.35;;
22186;SDS011;11259;52.146;12.844;2023-07-29T13:05:18;0.30;;;0.30;;
22186;SDS011;11259;52.146;12.844;2023-07-29T13:07:44;0.40;;;0.40;;
22186;SDS011;11259;52.146;12.844;2023-07-29T13:10:09;0.30;;;0.30;;
22186;SDS011;11259;52.146;12.844;2023-07-29T13:12:35;1.63;;;0.50;;
22186;SDS011;11259;52.146;12.844;2023-07-29T13:15:02;1.15;;;0.32;;
22186;SDS011;11259;52.146;12.844;2023-07-29T13:17:28;1.83;;;0.30;;
22186;SDS011;11259;52.146;12.844;2023-07-29T13:19:53;0.45;;;0.40;;
22186;SDS011;11259;52.146;12.844;2023-07-29T13:22:19;0.40;;;0.40;;
22186;SDS011;11259;52.146;12.844;2023-07-29T13:24:44;0.45;;;0.38;;
22186;SDS011;11259;52.146;12.844;2023-07-29T13:27:10;0.32;;;0.32;;
22186;SDS011;11259;52.146;12.844;2023-07-29T13:29:35;0.52;;;0.52;;
22186;SDS011;11259;52.146;12.844;2023-07-29T13:32:02;0.40;;;0.40;;
22186;SDS011;11259;52.146;12.844;2023-07-29T13:34:27;0.40;;;0.40;;
22186;SDS011;11259;52.146;12.844;2023-07-29T13:36:53;0.32;;;0.32;;
22186;SDS011;11259;52.146;12.844;2023-07-29T13:39:18;0.60;;;0.60;;
22186;SDS011;11259;52.146;12.844;2023-07-29T13:41:43;0.40;;;0.40;;
22186;SDS011;11259;52.146;12.844;2023-07-29T13:44:09;0.50;;;0.50;;
22186;SDS011;11259;52.146;12.844;2023-07-29T13:46:34;0.60;;;0.60;;
22186;SDS011;11259;52.146;12.844;2023-07-29T13:49:01;1.25;;;0.70;;
22186;SDS011;11259;52.146;12.844;2023-07-29T13:51:26;1.55;;;0.57;;
22186;SDS011;11259;52.146;12.844;2023-07-29T13:53:51;0.40;;;0.40;;
22186;SDS011;11259;52.146;12.844;2023-07-29T13:56:17;0.50;;;0.50;;
22186;SDS011;11259;52.146;12.844;2023-07-29T13:58:42;0.45;;;0.45;;
22186;SDS011;11259;52.146;12.844;2023-07-29T14:01:07;1.02;;;0.75;;
22186;SDS011;11259;52.146;12.844;2023-07-29T14:03:33;0.40;;;0.40;;
22186;SDS011;11259;52.146;12.844;2023-07-29T14:05:59;0.77;;;0.77;;
22186;SDS011;11259;52.146;12.844;2023-07-29T14:08:25;0.55;;;0.55;;
22186;SDS011;11259;52.146;12.844;2023-07-29T14:10:51;1.30;;;0.70;;
22186;SDS011;11259;52.146;12.844;2023-07-29T14:13:16;0.65;;;0.63;;
22186;SDS011;11259;52.146;12.844;2023-07-29T14:15:42;0.65;;;0.65;;
22186;SDS011;11259;52.146;12.844;2023-07-29T14:18:07;0.50;;;0.50;;
22186;SDS011;11259;52.146;12.844;2023-07-29T14:20:33;0.50;;;0.50;;
22186;SDS011;11259;52.146;12.844;2023-07-29T14:22:59;4.22;;;0.95;;
22186;SDS011;11259;52.146;12.844;2023-07-29T14:25:25;0.60;;;0.60;;